createdAt,value
2023-05-24T00:00:37.490Z,13.70
2023-05-24T00:03:05.076Z,13.80
2023-05-24T00:05:32.209Z,13.70
2023-05-24T00:07:59.943Z,13.80
2023-05-24T00:10:26.853Z,13.80
2023-05-24T00:12:53.678Z,13.80
2023-05-24T00:15:20.560Z,13.80
2023-05-24T00:17:47.553Z,13.70
2023-05-24T00:20:14.684Z,13.70
2023-05-24T00:22:42.327Z,13.40
2023-05-24T00:25:09.535Z,13.40
2023-05-24T00:27:37.320Z,13.50
2023-05-24T00:30:06.201Z,13.60
2023-05-24T00:32:33.405Z,13.60
2023-05-24T00:35:00.370Z,13.60
2023-05-24T00:37:27.478Z,13.70
2023-05-24T00:39:54.349Z,13.70
2023-05-24T00:42:21.207Z,13.60
2023-05-24T00:44:48.099Z,13.70
2023-05-24T00:47:16.063Z,13.80
2023-05-24T00:49:43.164Z,13.70
2023-05-24T00:52:10.297Z,13.70
2023-05-24T00:54:37.236Z,13.70
2023-05-24T00:57:04.402Z,13.80
2023-05-24T00:59:31.309Z,13.80
2023-05-24T01:01:58.246Z,13.90
2023-05-24T01:04:26.015Z,13.90
2023-05-24T01:07:26.842Z,13.90
2023-05-24T01:10:40.748Z,13.90
2023-05-24T01:13:26.106Z,13.90
2023-05-24T01:15:58.882Z,13.90
2023-05-24T01:18:48.816Z,13.90
2023-05-24T01:21:51.421Z,13.90
2023-05-24T01:24:44.429Z,13.90
2023-05-24T01:27:13.295Z,13.90
2023-05-24T01:29:41.096Z,13.90
2023-05-24T01:32:08.192Z,13.90
2023-05-24T01:34:35.311Z,13.90
2023-05-24T01:37:02.182Z,13.90
2023-05-24T01:39:29.851Z,13.80
2023-05-24T01:42:36.777Z,13.80
2023-05-24T01:45:25.917Z,13.80
2023-05-24T01:48:19.230Z,13.80
2023-05-24T01:50:53.424Z,13.70
2023-05-24T01:53:28.997Z,13.80
2023-05-24T01:55:57.429Z,13.80
2023-05-24T01:58:27.059Z,13.80
2023-05-24T02:00:54.276Z,13.80
2023-05-24T02:03:21.811Z,13.90
2023-05-24T02:05:49.077Z,13.90
2023-05-24T02:08:16.628Z,13.90
2023-05-24T02:10:43.932Z,13.80
2023-05-24T02:13:10.991Z,13.80
2023-05-24T02:15:37.912Z,13.70
2023-05-24T02:18:08.099Z,13.70
2023-05-24T02:20:37.076Z,13.60
2023-05-24T02:23:04.772Z,13.60
2023-05-24T02:25:32.800Z,13.60
2023-05-24T02:28:00.519Z,13.50
2023-05-24T02:30:27.609Z,13.50
2023-05-24T02:32:54.515Z,13.50
2023-05-24T02:35:21.709Z,13.50
2023-05-24T02:37:49.149Z,13.40
2023-05-24T02:40:16.190Z,13.40
2023-05-24T02:42:43.043Z,13.40
2023-05-24T02:45:10.383Z,13.30
2023-05-24T02:47:37.385Z,13.20
2023-05-24T02:50:04.716Z,13.20
2023-05-24T02:52:31.674Z,13.10
2023-05-24T02:54:58.552Z,13.00
2023-05-24T02:57:25.503Z,12.90
2023-05-24T02:59:52.938Z,12.80
2023-05-24T03:02:22.034Z,12.80
2023-05-24T03:04:48.933Z,12.70
2023-05-24T03:07:15.941Z,12.70
2023-05-24T03:09:43.109Z,12.70
2023-05-24T03:12:10.203Z,12.60
2023-05-24T03:14:37.044Z,12.60
2023-05-24T03:17:04.123Z,12.50
2023-05-24T03:19:31.021Z,12.50
2023-05-24T03:21:57.972Z,12.50
2023-05-24T03:24:26.036Z,12.40
2023-05-24T03:26:52.962Z,12.40
2023-05-24T03:29:19.874Z,12.40
2023-05-24T03:31:46.810Z,12.30
2023-05-24T03:34:13.689Z,12.30
2023-05-24T03:36:40.598Z,12.30
2023-05-24T03:39:07.859Z,12.20
2023-05-24T03:41:34.826Z,12.20
2023-05-24T03:44:01.753Z,12.20
2023-05-24T03:46:28.688Z,12.20
2023-05-24T03:48:55.730Z,12.10
2023-05-24T03:51:29.469Z,12.10
2023-05-24T03:53:57.484Z,12.20
2023-05-24T03:56:26.557Z,12.20
2023-05-24T03:58:53.724Z,12.00
2023-05-24T04:01:32.728Z,12.10
2023-05-24T04:04:01.708Z,12.20
2023-05-24T04:06:29.532Z,12.30
2023-05-24T04:09:01.171Z,12.30
2023-05-24T04:11:28.682Z,12.30
2023-05-24T04:13:57.134Z,12.40
2023-05-24T04:16:26.419Z,12.30
2023-05-24T04:18:56.708Z,12.30
2023-05-24T04:21:24.038Z,12.30
2023-05-24T04:23:51.096Z,12.30
2023-05-24T04:26:18.368Z,12.20
2023-05-24T04:28:48.471Z,12.30
2023-05-24T04:31:18.075Z,12.30
2023-05-24T04:33:44.973Z,12.30
2023-05-24T04:36:12.021Z,12.40
2023-05-24T04:38:40.949Z,12.50
2023-05-24T04:41:08.024Z,12.70
2023-05-24T04:43:35.091Z,12.80
2023-05-24T04:46:02.185Z,12.90
2023-05-24T04:48:29.355Z,12.90
2023-05-24T04:50:58.374Z,13.00
2023-05-24T04:53:25.726Z,13.10
2023-05-24T04:55:53.298Z,13.30
2023-05-24T04:58:20.268Z,13.30
2023-05-24T05:00:47.316Z,13.40
2023-05-24T05:03:14.385Z,13.50
2023-05-24T05:05:41.330Z,13.60
2023-05-24T05:08:08.188Z,13.70
2023-05-24T05:10:36.362Z,13.90
2023-05-24T05:13:03.550Z,14.00
2023-05-24T05:15:30.699Z,14.10
2023-05-24T05:17:57.693Z,13.90
2023-05-24T05:20:25.906Z,13.80
2023-05-24T05:22:52.899Z,13.90
2023-05-24T05:25:19.907Z,14.00
2023-05-24T05:27:46.828Z,14.00
2023-05-24T05:30:14.126Z,13.70
2023-05-24T05:32:41.279Z,13.80
2023-05-24T05:35:08.911Z,13.60
2023-05-24T05:37:35.962Z,13.40
2023-05-24T05:40:04.454Z,13.40
2023-05-24T05:42:31.340Z,13.50
2023-05-24T05:44:58.314Z,13.70
2023-05-24T05:47:25.249Z,14.00
2023-05-24T05:49:52.151Z,14.40
2023-05-24T05:52:19.038Z,14.80
2023-05-24T05:54:45.980Z,15.00
2023-05-24T05:57:12.993Z,15.10
2023-05-24T05:59:39.865Z,15.20
2023-05-24T06:02:07.431Z,15.30
2023-05-24T06:04:34.797Z,15.50
2023-05-24T06:07:01.799Z,15.50
2023-05-24T06:09:28.724Z,15.50
2023-05-24T06:11:55.655Z,15.40
2023-05-24T06:14:25.112Z,15.60
2023-05-24T06:16:54.387Z,15.70
2023-05-24T06:19:21.857Z,15.60
2023-05-24T06:21:50.573Z,15.70
2023-05-24T06:24:22.228Z,16.10
2023-05-24T06:26:51.915Z,15.50
2023-05-24T06:29:22.832Z,15.00
2023-05-24T06:31:50.951Z,14.50
2023-05-24T06:34:21.686Z,14.20
2023-05-24T06:36:50.939Z,14.00
2023-05-24T06:39:17.964Z,13.90
2023-05-24T06:41:46.509Z,14.00
2023-05-24T06:44:13.740Z,14.40
2023-05-24T06:46:40.948Z,14.90
2023-05-24T06:49:08.565Z,15.20
2023-05-24T06:51:35.975Z,15.40
2023-05-24T06:54:02.931Z,15.20
2023-05-24T06:56:30.003Z,15.10
2023-05-24T06:58:57.316Z,15.10
2023-05-24T07:01:24.234Z,14.90
2023-05-24T07:03:51.693Z,15.20
2023-05-24T07:06:18.784Z,15.80
2023-05-24T07:08:45.720Z,15.70
2023-05-24T07:11:12.656Z,15.90
2023-05-24T07:13:39.621Z,16.10
2023-05-24T07:16:07.099Z,16.10
2023-05-24T07:18:34.087Z,16.00
2023-05-24T07:21:01.185Z,16.20
2023-05-24T07:23:28.364Z,16.20
2023-05-24T07:25:55.326Z,16.40
2023-05-24T07:28:22.469Z,16.60
2023-05-24T07:30:49.622Z,16.20
2023-05-24T07:33:16.832Z,15.80
2023-05-24T07:35:45.807Z,16.00
2023-05-24T07:38:12.859Z,16.00
2023-05-24T07:40:39.821Z,15.90
2023-05-24T07:43:06.825Z,16.00
2023-05-24T07:45:34.149Z,16.20
2023-05-24T07:48:01.711Z,16.10
2023-05-24T07:50:29.440Z,16.20
2023-05-24T07:52:59.411Z,16.30
2023-05-24T07:55:27.932Z,16.70
2023-05-24T07:57:54.905Z,16.20
2023-05-24T08:00:23.108Z,16.00
2023-05-24T08:02:50.352Z,16.10
2023-05-24T08:05:18.202Z,16.30
2023-05-24T08:07:45.635Z,16.40
2023-05-24T08:10:13.891Z,16.50
2023-05-24T08:12:41.895Z,16.70
2023-05-24T08:15:09.395Z,16.90
2023-05-24T08:17:37.128Z,16.90
2023-05-24T08:20:13.833Z,16.90
2023-05-24T08:22:40.977Z,17.00
2023-05-24T08:25:08.730Z,17.30
2023-05-24T08:27:35.768Z,17.40
2023-05-24T08:30:04.371Z,17.40
2023-05-24T08:32:32.347Z,17.60
2023-05-24T08:35:17.587Z,18.00
2023-05-24T08:37:47.438Z,18.10
2023-05-24T08:40:14.444Z,18.00
2023-05-24T08:42:41.817Z,17.60
2023-05-24T08:45:12.404Z,17.00
2023-05-24T08:47:39.919Z,16.70
2023-05-24T08:50:08.584Z,16.80
2023-05-24T08:52:36.632Z,16.90
2023-05-24T08:55:07.449Z,16.70
2023-05-24T08:57:39.925Z,17.00
2023-05-24T09:00:12.739Z,17.10
2023-05-24T09:02:42.119Z,16.80
2023-05-24T09:05:14.346Z,16.70
2023-05-24T09:07:44.288Z,17.30
2023-05-24T09:10:11.791Z,17.30
2023-05-24T09:12:40.678Z,17.10
2023-05-24T09:15:09.003Z,17.20
2023-05-24T09:17:37.948Z,17.10
2023-05-24T09:20:08.973Z,17.10
2023-05-24T09:22:40.810Z,17.10
2023-05-24T09:25:11.005Z,17.20
2023-05-24T09:27:38.517Z,16.80
2023-05-24T09:30:10.298Z,16.30
2023-05-24T09:32:38.006Z,16.10
2023-05-24T09:35:09.505Z,16.40
2023-05-24T09:37:38.525Z,17.20
2023-05-24T09:40:07.256Z,17.70
2023-05-24T09:42:34.220Z,17.80
2023-05-24T09:45:12.374Z,17.80
2023-05-24T09:47:41.929Z,18.30
2023-05-24T09:50:18.052Z,18.40
2023-05-24T09:52:45.556Z,17.80
2023-05-24T09:55:20.680Z,17.30
2023-05-24T09:58:08.134Z,17.20
2023-05-24T10:00:40.158Z,16.90
2023-05-24T10:03:11.179Z,17.10
2023-05-24T10:05:42.740Z,17.30
2023-05-24T10:08:10.701Z,17.50
2023-05-24T10:10:37.956Z,17.50
2023-05-24T10:13:05.370Z,17.30
2023-05-24T10:15:32.285Z,17.50
2023-05-24T10:18:10.433Z,17.70
2023-05-24T10:20:41.543Z,17.70
2023-05-24T10:23:11.086Z,17.80
2023-05-24T10:25:48.246Z,17.90
2023-05-24T10:28:16.397Z,17.90
2023-05-24T10:30:59.465Z,18.00
2023-05-24T10:33:26.652Z,18.20
2023-05-24T10:35:54.700Z,18.40
2023-05-24T10:38:24.458Z,18.20
2023-05-24T10:40:52.130Z,17.90
2023-05-24T10:43:19.536Z,17.60
2023-05-24T10:45:51.679Z,17.40
2023-05-24T10:48:24.894Z,17.40
2023-05-24T10:50:52.344Z,17.10
2023-05-24T10:53:22.634Z,16.80
2023-05-24T10:55:55.673Z,16.80
2023-05-24T10:58:30.626Z,17.00
2023-05-24T11:00:57.653Z,17.90
2023-05-24T11:03:25.263Z,18.30
2023-05-24T11:05:54.948Z,18.50
2023-05-24T11:08:35.833Z,18.60
2023-05-24T11:13:47.699Z,20.00
2023-05-24T11:16:37.337Z,20.30
2023-05-24T11:19:34.314Z,19.20
2023-05-24T11:22:07.896Z,18.50
2023-05-24T11:24:35.226Z,18.80
2023-05-24T11:27:03.552Z,18.60
2023-05-24T11:29:31.249Z,18.50
2023-05-24T11:32:05.304Z,19.30
2023-05-24T11:34:33.511Z,19.10
2023-05-24T11:37:01.877Z,19.80
2023-05-24T11:39:34.362Z,19.90
2023-05-24T11:42:04.820Z,19.60
2023-05-24T11:44:34.580Z,19.60
2023-05-24T11:47:03.312Z,19.80
2023-05-24T11:49:30.518Z,20.00
2023-05-24T11:51:59.264Z,20.30
2023-05-24T11:54:28.266Z,20.10
2023-05-24T11:56:55.650Z,20.00
2023-05-24T11:59:27.799Z,19.30
2023-05-24T12:02:06.060Z,19.00
2023-05-24T12:04:34.625Z,18.90
2023-05-24T12:07:02.155Z,18.70
2023-05-24T12:09:29.380Z,18.40
2023-05-24T12:11:58.211Z,18.40
2023-05-24T12:14:31.277Z,18.90
2023-05-24T12:16:58.929Z,19.10
2023-05-24T12:19:33.495Z,19.10
2023-05-24T12:22:06.693Z,19.20
2023-05-24T12:24:34.281Z,19.40
2023-05-24T12:27:07.553Z,19.50
2023-05-24T12:29:41.305Z,19.70
2023-05-24T12:32:14.758Z,19.20
2023-05-24T12:34:44.040Z,19.10
2023-05-24T12:37:13.330Z,19.00
2023-05-24T12:39:43.114Z,19.00
2023-05-24T12:42:12.558Z,19.70
2023-05-24T12:44:40.252Z,20.60
2023-05-24T12:47:08.807Z,21.60
2023-05-24T12:49:36.581Z,22.00
2023-05-24T12:52:04.027Z,20.60
2023-05-24T12:54:31.304Z,19.60
2023-05-24T12:57:00.462Z,19.60
2023-05-24T12:59:28.602Z,19.20
2023-05-24T13:01:56.048Z,18.80
2023-05-24T13:04:26.084Z,18.10
2023-05-24T13:06:53.130Z,17.90
2023-05-24T13:09:22.432Z,18.10
2023-05-24T13:11:49.569Z,18.00
2023-05-24T13:14:17.032Z,18.30
2023-05-24T13:16:44.532Z,18.50
2023-05-24T13:19:12.416Z,18.30
2023-05-24T13:21:39.960Z,18.20
2023-05-24T13:24:07.755Z,18.50
2023-05-24T13:26:38.191Z,18.80
2023-05-24T13:31:40.696Z,19.60
2023-05-24T13:34:09.220Z,19.60
2023-05-24T13:36:36.434Z,19.60
2023-05-24T13:39:13.914Z,19.70
2023-05-24T13:41:42.518Z,19.80
2023-05-24T13:44:10.158Z,19.80
2023-05-24T13:46:38.290Z,19.30
2023-05-24T13:49:06.043Z,18.70
2023-05-24T13:51:33.465Z,18.70
2023-05-24T13:54:01.147Z,18.50
2023-05-24T13:56:34.155Z,18.20
2023-05-24T13:59:03.550Z,18.30
2023-05-24T14:01:31.233Z,18.80
2023-05-24T14:03:58.791Z,19.10
2023-05-24T14:06:25.859Z,19.90
2023-05-24T14:08:53.355Z,20.20
2023-05-24T14:11:20.326Z,20.60
2023-05-24T14:16:19.700Z,22.00
2023-05-24T14:18:48.968Z,22.90
2023-05-24T14:21:18.379Z,22.60
2023-05-24T14:23:45.303Z,21.50
2023-05-24T14:26:12.172Z,21.10
2023-05-24T14:28:39.283Z,21.40
2023-05-24T14:31:06.408Z,21.80
2023-05-24T14:33:33.386Z,22.00
2023-05-24T14:36:00.430Z,21.30
2023-05-24T14:38:28.008Z,21.50
2023-05-24T14:40:56.939Z,21.60
2023-05-24T14:43:23.867Z,21.20
2023-05-24T14:45:50.820Z,21.30
2023-05-24T14:48:17.895Z,21.90
2023-05-24T14:50:44.890Z,21.50
2023-05-24T14:53:12.739Z,21.20
2023-05-24T14:55:42.156Z,20.90
2023-05-24T14:58:11.630Z,20.60
2023-05-24T15:00:40.135Z,20.60
2023-05-24T15:03:08.146Z,20.80
2023-05-24T15:05:36.356Z,21.50
2023-05-24T15:08:04.966Z,22.00
2023-05-24T15:10:31.974Z,22.60
2023-05-24T15:12:58.984Z,23.50
2023-05-24T15:15:25.864Z,23.50
2023-05-24T15:17:52.751Z,23.50
2023-05-24T15:20:19.912Z,23.20
2023-05-24T15:22:46.887Z,23.70
2023-05-24T15:25:13.819Z,22.80
2023-05-24T15:27:40.758Z,22.50
2023-05-24T15:30:08.312Z,22.50
2023-05-24T15:32:35.272Z,22.30
2023-05-24T15:35:02.543Z,22.20
2023-05-24T15:37:29.443Z,22.20
2023-05-24T15:39:56.367Z,22.90
2023-05-24T15:42:24.735Z,23.30
2023-05-24T15:44:51.807Z,23.80
2023-05-24T15:47:21.911Z,23.90
2023-05-24T15:49:49.823Z,24.20
2023-05-24T15:52:17.082Z,24.00
2023-05-24T15:54:44.132Z,23.60
2023-05-24T15:57:11.196Z,23.20
2023-05-24T15:59:38.708Z,23.10
2023-05-24T16:02:09.341Z,22.60
2023-05-24T16:04:36.375Z,22.20
2023-05-24T16:07:03.374Z,22.10
2023-05-24T16:09:30.501Z,21.20
2023-05-24T16:11:57.428Z,20.20
2023-05-24T16:14:24.424Z,20.10
2023-05-24T16:16:51.356Z,20.00
2023-05-24T16:19:18.474Z,19.80
2023-05-24T16:21:45.767Z,19.60
2023-05-24T16:24:12.645Z,19.60
2023-05-24T16:26:39.571Z,19.60
2023-05-24T16:29:07.112Z,19.50
2023-05-24T16:31:34.257Z,19.20
2023-05-24T16:34:01.259Z,19.10
2023-05-24T16:36:28.293Z,19.10
2023-05-24T16:38:55.193Z,19.10
2023-05-24T16:41:22.200Z,18.90
2023-05-24T16:43:49.313Z,18.80
2023-05-24T16:46:16.313Z,18.70
2023-05-24T16:48:43.234Z,18.50
2023-05-24T16:51:10.377Z,18.30
2023-05-24T16:53:37.291Z,18.30
2023-05-24T16:56:04.244Z,18.20
2023-05-24T16:58:31.566Z,18.10
2023-05-24T17:00:58.930Z,17.90
2023-05-24T17:03:30.101Z,17.80
2023-05-24T17:06:03.542Z,17.70
2023-05-24T17:08:37.281Z,17.50
2023-05-24T17:11:05.391Z,17.40
2023-05-24T17:13:33.262Z,17.20
2023-05-24T17:16:00.809Z,17.10
2023-05-24T17:18:28.414Z,17.10
2023-05-24T17:21:02.951Z,16.90
2023-05-24T17:23:36.480Z,16.80
2023-05-24T17:26:04.698Z,16.60
2023-05-24T17:28:34.528Z,16.50
2023-05-24T17:31:02.103Z,16.40
2023-05-24T17:33:31.488Z,16.30
2023-05-24T17:36:02.549Z,16.20
2023-05-24T17:38:32.888Z,16.10
2023-05-24T17:40:59.995Z,16.00
2023-05-24T17:43:32.618Z,16.00
2023-05-24T17:46:04.204Z,15.90
2023-05-24T17:48:32.604Z,15.80
2023-05-24T17:51:01.090Z,15.70
2023-05-24T17:53:33.452Z,15.70
2023-05-24T17:56:01.834Z,15.60
2023-05-24T17:58:35.547Z,15.50
2023-05-24T18:01:05.241Z,15.50
2023-05-24T18:03:33.560Z,15.40
2023-05-24T18:06:01.181Z,15.40
2023-05-24T18:08:28.196Z,15.30
2023-05-24T18:10:55.068Z,15.20
2023-05-24T18:13:22.151Z,15.20
2023-05-24T18:15:50.335Z,15.00
2023-05-24T18:18:17.686Z,15.20
2023-05-24T18:20:44.620Z,15.10
2023-05-24T18:23:11.891Z,15.00
2023-05-24T18:25:38.844Z,15.00
2023-05-24T18:28:05.822Z,14.80
2023-05-24T18:30:32.722Z,14.80
2023-05-24T18:33:07.160Z,14.70
2023-05-24T18:35:35.032Z,14.70
2023-05-24T18:38:01.896Z,14.60
2023-05-24T18:40:28.812Z,14.50
2023-05-24T18:42:55.702Z,14.50
2023-05-24T18:45:23.018Z,14.40
2023-05-24T18:47:49.907Z,14.30
2023-05-24T18:50:17.134Z,14.30
2023-05-24T18:52:44.131Z,14.30
2023-05-24T18:55:11.074Z,14.20
2023-05-24T18:57:38.560Z,14.10
2023-05-24T19:00:07.395Z,14.10
2023-05-24T19:02:38.548Z,14.00
2023-05-24T19:05:07.792Z,14.00
2023-05-24T19:07:36.045Z,13.90
2023-05-24T19:10:04.126Z,13.90
2023-05-24T19:12:31.284Z,13.80
2023-05-24T19:14:58.501Z,13.70
2023-05-24T19:17:25.752Z,13.80
2023-05-24T19:19:52.781Z,13.70
2023-05-24T19:22:19.939Z,13.60
2023-05-24T19:24:46.985Z,13.60
2023-05-24T19:27:13.980Z,13.60
2023-05-24T19:29:41.248Z,13.40
2023-05-24T19:32:08.909Z,13.40
2023-05-24T19:34:37.316Z,13.40
2023-05-24T19:37:04.659Z,13.40
2023-05-24T19:39:31.601Z,13.30
2023-05-24T19:41:58.526Z,13.30
2023-05-24T19:44:25.514Z,13.20
2023-05-24T19:46:52.363Z,13.10
2023-05-24T19:49:19.368Z,13.00
2023-05-24T19:51:46.344Z,13.00
2023-05-24T19:54:13.764Z,12.90
2023-05-24T19:56:40.665Z,12.90
2023-05-24T19:59:07.629Z,12.90
2023-05-24T20:01:34.619Z,12.90
2023-05-24T20:04:01.783Z,12.80
2023-05-24T20:06:29.563Z,12.80
2023-05-24T20:08:58.775Z,12.70
2023-05-24T20:11:26.592Z,12.80
2023-05-24T20:13:53.508Z,12.80
2023-05-24T20:16:20.501Z,12.90
2023-05-24T20:18:47.464Z,12.80
2023-05-24T20:21:15.285Z,12.80
2023-05-24T20:23:42.292Z,12.80
2023-05-24T20:26:09.265Z,12.70
2023-05-24T20:28:36.201Z,12.70
2023-05-24T20:31:03.377Z,12.70
2023-05-24T20:33:30.302Z,12.70
2023-05-24T20:35:58.264Z,12.70
2023-05-24T20:38:25.144Z,12.60
2023-05-24T20:40:52.001Z,12.60
2023-05-24T20:43:18.861Z,12.60
2023-05-24T20:45:46.087Z,12.60
2023-05-24T20:48:13.273Z,12.60
2023-05-24T20:50:40.241Z,12.60
2023-05-24T20:53:07.221Z,12.60
2023-05-24T20:55:34.145Z,12.50
2023-05-24T20:58:01.051Z,12.50
2023-05-24T21:00:27.954Z,12.50
2023-05-24T21:02:54.857Z,12.50
2023-05-24T21:05:21.923Z,12.50
2023-05-24T21:07:48.822Z,12.40
2023-05-24T21:10:18.603Z,12.40
2023-05-24T21:12:46.204Z,12.40
2023-05-24T21:15:13.226Z,12.30
2023-05-24T21:17:40.146Z,12.30
2023-05-24T21:20:07.743Z,12.30
2023-05-24T21:22:34.853Z,12.30
2023-05-24T21:25:01.948Z,12.30
2023-05-24T21:27:28.904Z,12.30
2023-05-24T21:29:55.947Z,12.30
2023-05-24T21:32:22.833Z,12.30
2023-05-24T21:34:49.919Z,12.20
2023-05-24T21:37:17.543Z,12.20
2023-05-24T21:39:44.634Z,12.20
2023-05-24T21:42:11.626Z,12.10
2023-05-24T21:44:38.519Z,12.10
2023-05-24T21:47:05.709Z,12.00
2023-05-24T21:49:32.548Z,12.00
2023-05-24T21:51:59.508Z,12.10
2023-05-24T21:54:26.405Z,12.00
2023-05-24T21:56:53.315Z,12.00
2023-05-24T21:59:21.363Z,12.00
2023-05-24T22:01:48.723Z,11.90
2023-05-24T22:04:15.975Z,12.00
2023-05-24T22:06:45.864Z,12.00
2023-05-24T22:09:13.669Z,12.00
2023-05-24T22:11:43.206Z,12.00
2023-05-24T22:14:10.878Z,12.10
2023-05-24T22:16:38.078Z,12.10
2023-05-24T22:19:14.466Z,12.10
2023-05-24T22:21:42.815Z,12.20
2023-05-24T22:24:10.623Z,12.20
2023-05-24T22:26:38.227Z,12.20
2023-05-24T22:29:05.247Z,12.20
2023-05-24T22:31:36.231Z,12.30
2023-05-24T22:34:03.413Z,12.30
2023-05-24T22:36:33.814Z,12.30
2023-05-24T22:39:01.784Z,12.30
2023-05-24T22:41:29.059Z,12.20
2023-05-24T22:43:57.213Z,12.20
2023-05-24T22:46:24.763Z,12.20
2023-05-24T22:48:52.350Z,12.20
2023-05-24T22:51:20.481Z,12.30
2023-05-24T22:53:48.295Z,12.30
2023-05-24T22:56:15.824Z,12.30
2023-05-24T22:58:42.841Z,12.30
2023-05-24T23:01:09.791Z,12.30
2023-05-24T23:03:36.757Z,12.30
2023-05-24T23:06:04.515Z,12.20
2023-05-24T23:08:32.872Z,12.30
2023-05-24T23:11:10.059Z,12.20
2023-05-24T23:13:38.012Z,12.30
2023-05-24T23:16:05.461Z,12.30
2023-05-24T23:18:32.945Z,12.20
2023-05-24T23:21:03.025Z,12.10
2023-05-24T23:23:30.015Z,12.10
2023-05-24T23:25:56.896Z,12.00
2023-05-24T23:28:23.766Z,12.10
2023-05-24T23:30:50.808Z,12.10
2023-05-24T23:33:17.717Z,12.10
2023-05-24T23:35:44.997Z,12.10
2023-05-24T23:38:13.669Z,12.10
2023-05-24T23:40:40.872Z,12.10
2023-05-24T23:43:07.838Z,12.10
2023-05-24T23:45:34.928Z,12.10
2023-05-24T23:48:02.325Z,12.10
2023-05-24T23:50:30.283Z,12.10
2023-05-24T23:52:59.898Z,12.00
2023-05-24T23:55:26.784Z,12.00
2023-05-24T23:57:53.895Z,12.00
